Wales, North Dakota
Current Conditions -  °F | °C
As of 11:15 PM on Friday 24 Oct 2014 (Local Time) from KD55 Reporting Station
Clear Clear  
Wind Chill: 38°   Ceiling: Unl
Heat Index: 45°   Visibility: 10mi
Dew Point: 32°   Wind: 13mph
Humidity: 61%   Direction: 280°W
Pressure: 29.9"   Gusts: NA
Location:  48.9°N, 98.6°W
Report Text: KD55 250415Z AUTO 28011KT 10SM CLR 07/00 A2990 RMK AO2
Loading
Personal Weather Stations






























Interactive Weather Map
Tropical Storm Tracking
New forecast layout! Learn more

10-Day Weather Forecast

Advertisements
Track Severe Weather on mobile